Time;durP1;ratioP1;P1;durP2;ratioP2;P2;SDS_P1;SDS_P2;PMS_P1;PMS_P2;Temp;Humidity;BMP_temperature;BMP_pressure;BME280_temperature;BME280_humidity;BME280_pressure;Samples;Min_cycle;Max_cycle;Signal;HPM_P1;HPM_P2
2022/07/14 00:00:19;;;;;;;6.45;6.05;;;24.20;59.10;;;;;;5009279;28;20194;-88
2022/07/14 00:02:44;;;;;;;6.63;6.22;;;24.10;59.00;;;;;;5021295;28;20205;-87
2022/07/14 00:05:10;;;;;;;6.45;6.05;;;24.20;58.50;;;;;;5020689;28;20732;-87
2022/07/14 00:07:36;;;;;;;6.85;6.35;;;24.20;58.40;;;;;;5018672;28;20189;-87
2022/07/14 00:10:02;;;;;;;6.25;5.78;;;23.70;59.70;;;;;;5018127;28;20178;-90
2022/07/14 00:12:31;;;;;;;5.72;5.40;;;23.40;60.80;;;;;;5001491;28;20200;-88
2022/07/14 00:15:00;;;;;;;6.20;5.90;;;23.60;60.90;;;;;;5002854;28;20217;-88
2022/07/14 00:17:25;;;;;;;5.65;5.35;;;23.70;60.70;;;;;;5020041;28;20228;-88
2022/07/14 00:19:52;;;;;;;5.55;5.15;;;23.70;60.50;;;;;;5018656;28;20189;-89
2022/07/14 00:22:18;;;;;;;6.47;5.68;;;23.80;60.30;;;;;;4996700;28;20210;-87
2022/07/14 00:24:44;;;;;;;5.53;5.20;;;23.90;60.10;;;;;;5001786;28;20221;-88
2022/07/14 00:27:10;;;;;;;5.60;5.20;;;23.90;60.00;;;;;;5019872;28;20189;-90
2022/07/14 00:29:36;;;;;;;5.50;5.20;;;23.90;59.80;;;;;;5014591;28;20213;-88
2022/07/14 00:32:03;;;;;;;5.38;5.07;;;24.00;59.40;;;;;;5014226;28;20236;-88
2022/07/14 00:34:28;;;;;;;5.60;5.20;;;24.00;59.30;;;;;;5016558;28;20305;-89
2022/07/14 00:36:54;;;;;;;5.60;5.20;;;24.00;59.40;;;;;;4999517;28;20665;-89
2022/07/14 00:39:20;;;;;;;5.80;5.50;;;23.90;59.30;;;;;;5005244;28;20186;-88
2022/07/14 00:41:45;;;;;;;5.95;5.55;;;24.00;59.10;;;;;;4996499;28;20197;-88
2022/07/14 00:44:11;;;;;;;5.93;5.43;;;23.90;60.30;;;;;;5008439;28;20566;-90
2022/07/14 00:46:41;;;;;;;6.07;5.68;;;23.90;59.90;;;;;;5013414;28;20201;-88
2022/07/14 00:49:07;;;;;;;6.30;5.72;;;23.90;59.00;;;;;;4994167;28;20193;-89
2022/07/14 00:51:32;;;;;;;5.72;5.32;;;24.00;58.10;;;;;;5011831;28;20288;-89
2022/07/14 00:54:01;;;;;;;6.50;5.90;;;24.10;57.60;;;;;;5018479;28;20217;-89
2022/07/14 00:56:29;;;;;;;6.32;5.93;;;24.00;58.60;;;;;;5015775;28;20229;-88
2022/07/14 00:58:55;;;;;;;5.65;5.35;;;24.00;58.20;;;;;;5002492;28;20189;-90
2022/07/14 01:01:21;;;;;;;6.10;5.70;;;23.90;56.20;;;;;;5001360;28;20189;-89
2022/07/14 01:03:46;;;;;;;5.82;5.53;;;23.90;55.50;;;;;;5007210;28;20182;-89
2022/07/14 01:06:12;;;;;;;5.85;5.55;;;23.80;56.30;;;;;;5000334;28;20215;-90
2022/07/14 01:08:38;;;;;;;6.28;5.85;;;23.80;55.90;;;;;;4998894;28;20196;-88
2022/07/14 01:11:07;;;;;;;6.05;5.63;;;23.80;54.60;;;;;;5013935;28;20189;-88
2022/07/14 01:13:33;;;;;;;6.57;6.18;;;23.80;52.80;;;;;;4990599;28;20301;-89
2022/07/14 01:16:02;;;;;;;6.18;5.78;;;23.80;53.10;;;;;;5014361;28;20747;-89
2022/07/14 01:18:28;;;;;;;6.45;5.82;;;23.80;52.40;;;;;;5017351;28;20269;-88
2022/07/14 01:20:53;;;;;;;6.13;5.82;;;23.80;51.80;;;;;;5011149;28;20210;-88
2022/07/14 01:23:19;;;;;;;6.00;5.55;;;23.80;49.40;;;;;;5014481;28;20213;-89
2022/07/14 01:25:45;;;;;;;5.80;5.50;;;23.70;50.30;;;;;;5008985;28;20207;-89
2022/07/14 01:28:10;;;;;;;5.60;5.20;;;23.40;49.20;;;;;;5017703;28;20553;-89
2022/07/14 01:30:36;;;;;;;5.40;5.15;;;23.40;50.90;;;;;;5003306;28;20529;-87
2022/07/14 01:33:02;;;;;;;5.93;5.28;;;23.50;51.80;;;;;;4981526;28;20596;-89
2022/07/14 01:35:27;;;;;;;6.13;5.60;;;23.60;52.70;;;;;;4986888;28;20213;-86
2022/07/14 01:37:53;;;;;;;6.32;6.00;;;23.60;54.40;;;;;;5018751;28;20185;-86
2022/07/14 01:40:19;;;;;;;6.80;6.22;;;23.60;54.70;;;;;;5018134;28;20186;-86
2022/07/14 01:42:44;;;;;;;6.43;6.03;;;23.40;55.10;;;;;;5010585;28;20194;-87
2022/07/14 01:45:12;;;;;;;7.00;6.18;;;23.40;55.30;;;;;;5018114;28;20213;-87
2022/07/14 01:47:37;;;;;;;8.07;6.00;;;23.40;55.80;;;;;;5018582;28;20194;-86
2022/07/14 01:50:03;;;;;;;5.93;5.53;;;23.40;55.90;;;;;;4991195;28;20202;-86
2022/07/14 01:52:29;;;;;;;5.82;5.50;;;23.40;56.10;;;;;;4985610;28;20232;-87
2022/07/14 01:54:58;;;;;;;5.85;5.35;;;23.40;56.40;;;;;;5018116;28;20217;-86
2022/07/14 01:57:23;;;;;;;5.65;5.25;;;23.40;56.60;;;;;;4982975;28;20200;-87
2022/07/14 01:59:49;;;;;;;5.93;5.63;;;23.30;56.40;;;;;;4999546;28;20181;-86
2022/07/14 02:02:15;;;;;;;6.05;5.55;;;23.20;56.40;;;;;;5000921;28;20189;-87
2022/07/14 02:04:40;;;;;;;5.68;5.38;;;23.10;57.40;;;;;;4997689;28;20364;-87
2022/07/14 02:07:07;;;;;;;5.38;5.07;;;23.00;57.90;;;;;;4999239;28;20211;-86
2022/07/14 02:12:20;;;;;;;5.25;4.95;;;22.90;59.00;;;;;;5012705;28;20531;-87
2022/07/14 02:14:45;;;;;;;5.45;5.10;;;22.80;58.60;;;;;;4997011;28;20217;-88
2022/07/14 02:17:15;;;;;;;5.35;4.95;;;22.80;58.60;;;;;;5011334;28;20235;-88
2022/07/14 02:19:40;;;;;;;5.88;5.47;;;22.90;58.80;;;;;;5015583;28;20249;-86
2022/07/14 02:22:06;;;;;;;5.72;5.22;;;22.90;57.90;;;;;;5016649;28;20236;-86
2022/07/14 02:24:32;;;;;;;5.88;4.95;;;22.90;57.90;;;;;;4982042;28;20193;-86
2022/07/14 02:26:57;;;;;;;5.45;5.15;;;22.80;58.50;;;;;;4992749;28;20247;-87
2022/07/14 02:29:23;;;;;;;5.57;5.18;;;22.70;58.80;;;;;;4997265;28;20177;-87
2022/07/14 02:31:49;;;;;;;5.40;4.93;;;22.80;58.90;;;;;;5006213;28;20269;-87
2022/07/14 02:34:16;;;;;;;5.57;5.18;;;22.80;59.20;;;;;;5016153;28;20336;-87
2022/07/14 02:36:45;;;;;;;5.35;4.95;;;22.60;58.80;;;;;;5015611;28;20210;-88
2022/07/14 02:39:12;;;;;;;5.25;4.90;;;22.50;59.30;;;;;;5016343;28;20193;-87
2022/07/14 02:41:38;;;;;;;5.63;5.00;;;22.50;59.50;;;;;;5017476;28;20282;-91
2022/07/14 02:44:04;;;;;;;5.35;4.78;;;22.50;59.50;;;;;;5000852;28;20178;-90
2022/07/14 02:46:29;;;;;;;5.05;4.72;;;22.40;59.10;;;;;;5018743;28;20265;-86
2022/07/14 02:49:04;;;;;;;5.28;4.82;;;22.20;59.50;;;;;;5009986;28;20193;-87
2022/07/14 02:51:30;;;;;;;5.30;4.90;;;22.30;60.20;;;;;;4997196;28;20253;-86
2022/07/14 02:54:01;;;;;;;4.82;4.53;;;22.30;60.20;;;;;;4996589;28;20215;-87
2022/07/14 02:56:27;;;;;;;5.05;4.65;;;22.40;59.50;;;;;;4973067;28;20214;-87
2022/07/14 02:58:53;;;;;;;5.20;4.80;;;22.40;58.80;;;;;;5001044;28;20216;-87
2022/07/14 03:01:19;;;;;;;5.43;4.82;;;22.40;58.80;;;;;;5016232;28;20231;-87
2022/07/14 03:03:45;;;;;;;5.50;5.03;;;22.30;59.10;;;;;;4991044;28;20186;-88
2022/07/14 03:06:19;;;;;;;5.65;4.88;;;22.40;59.50;;;;;;5001220;28;20249;-88
2022/07/14 03:08:46;;;;;;;4.65;4.28;;;22.30;59.20;;;;;;5002130;28;20188;-87
2022/07/14 03:11:11;;;;;;;21.02;5.63;;;22.40;58.60;;;;;;5014624;28;20185;-88
2022/07/14 03:13:37;;;;;;;10.82;5.85;;;22.30;59.20;;;;;;4994273;28;20205;-87
2022/07/14 03:16:09;;;;;;;8.95;5.03;;;22.30;59.30;;;;;;5015984;28;20275;-87
2022/07/14 03:18:35;;;;;;;12.95;5.60;;;22.30;59.50;;;;;;5016509;28;20165;-86
2022/07/14 03:21:05;;;;;;;13.05;5.78;;;22.20;59.50;;;;;;5017650;28;20593;-87
2022/07/14 03:23:30;;;;;;;7.18;4.93;;;22.10;59.70;;;;;;5001127;28;20193;-86
2022/07/14 03:25:56;;;;;;;8.90;4.80;;;22.20;59.90;;;;;;5012903;28;20340;-86
2022/07/14 03:28:22;;;;;;;6.38;4.53;;;22.10;59.80;;;;;;5018447;28;20193;-86
2022/07/14 03:30:54;;;;;;;8.85;4.53;;;22.10;60.60;;;;;;5018856;28;20617;-87
2022/07/14 03:33:20;;;;;;;7.13;4.70;;;22.10;60.10;;;;;;5021193;28;20240;-86
2022/07/14 03:35:45;;;;;;;9.55;4.90;;;22.00;60.10;;;;;;5002594;28;20221;-86
2022/07/14 03:38:11;;;;;;;11.18;5.32;;;21.90;60.60;;;;;;5022083;28;20190;-86
2022/07/14 03:40:37;;;;;;;6.18;4.88;;;21.90;61.60;;;;;;5011013;28;20186;-88
2022/07/14 03:43:03;;;;;;;8.90;5.10;;;21.80;61.50;;;;;;5007072;28;20213;-87
2022/07/14 03:45:29;;;;;;;5.28;4.78;;;21.90;61.20;;;;;;5014040;28;20214;-87
2022/07/14 03:47:55;;;;;;;5.40;4.90;;;21.90;61.20;;;;;;4984660;28;20193;-88
2022/07/14 03:50:20;;;;;;;4.95;4.55;;;21.80;61.30;;;;;;5001839;28;20684;-88
2022/07/14 03:52:46;;;;;;;7.18;5.15;;;21.80;61.90;;;;;;5008269;28;20197;-87
2022/07/14 03:55:12;;;;;;;6.20;4.90;;;21.80;61.70;;;;;;4985529;28;20226;-87
2022/07/14 03:57:38;;;;;;;5.45;4.97;;;21.80;61.80;;;;;;5005630;28;20266;-87
2022/07/14 04:00:04;;;;;;;5.30;4.90;;;21.70;62.20;;;;;;5014072;28;20217;-87
2022/07/14 04:02:30;;;;;;;6.20;5.07;;;21.80;62.10;;;;;;5006508;28;21006;-87
2022/07/14 04:04:56;;;;;;;8.07;5.78;;;21.80;61.60;;;;;;5005676;28;20257;-87
2022/07/14 04:07:21;;;;;;;6.05;5.15;;;21.70;62.40;;;;;;5015843;28;20668;-86
2022/07/14 04:09:49;;;;;;;6.60;5.18;;;21.70;63.20;;;;;;5028860;28;20317;-87
2022/07/14 04:12:16;;;;;;;5.32;4.82;;;21.60;62.80;;;;;;5028167;28;20197;-87
2022/07/14 04:14:41;;;;;;;9.45;5.85;;;21.60;62.80;;;;;;5009771;28;20217;-88
2022/07/14 04:17:07;;;;;;;6.68;5.45;;;21.60;62.90;;;;;;5003449;28;20209;-88
2022/07/14 04:19:33;;;;;;;5.53;5.00;;;21.60;62.80;;;;;;5000725;28;20200;-88
2022/07/14 04:22:00;;;;;;;6.35;5.50;;;21.70;62.70;;;;;;5019241;28;20605;-88
2022/07/14 04:24:25;;;;;;;6.03;5.18;;;21.80;61.90;;;;;;5013675;28;20209;-88
2022/07/14 04:26:54;;;;;;;6.30;5.38;;;21.90;60.90;;;;;;5000708;28;20549;-88
2022/07/14 04:29:20;;;;;;;7.53;5.38;;;21.70;62.30;;;;;;4998081;28;20206;-87
2022/07/14 04:31:46;;;;;;;7.38;5.03;;;21.70;62.80;;;;;;4997967;28;20297;-87
2022/07/14 04:34:12;;;;;;;5.25;4.85;;;21.50;63.00;;;;;;4992081;28;20240;-87
2022/07/14 04:36:37;;;;;;;5.68;5.13;;;21.60;62.90;;;;;;5011697;28;20235;-87
2022/07/14 04:39:06;;;;;;;5.60;5.20;;;21.60;62.90;;;;;;5002074;28;20992;-87
2022/07/14 04:41:35;;;;;;;5.82;5.32;;;21.40;64.10;;;;;;4985915;28;20275;-86
2022/07/14 04:44:01;;;;;;;5.97;5.45;;;21.20;64.80;;;;;;5007188;28;20236;-85
2022/07/14 04:46:27;;;;;;;6.07;5.57;;;21.20;64.90;;;;;;4988822;28;20253;-86
2022/07/14 04:54:21;;;;;;;6.97;5.63;;;21.50;63.90;;;;;;4983402;28;20205;-85
2022/07/14 04:56:46;;;;;;;5.85;5.35;;;21.60;63.50;;;;;;4982809;28;20206;-85
2022/07/14 04:59:12;;;;;;;5.78;5.22;;;21.60;63.80;;;;;;4983003;28;20274;-85
2022/07/14 05:01:38;;;;;;;6.03;5.60;;;21.70;63.30;;;;;;5014657;28;20182;-85
2022/07/14 05:04:04;;;;;;;5.45;5.03;;;21.80;61.50;;;;;;4991061;28;20185;-85
2022/07/14 05:06:29;;;;;;;7.43;4.95;;;21.90;60.30;;;;;;5017364;28;20216;-86
2022/07/14 05:08:55;;;;;;;5.07;4.68;;;22.10;59.00;;;;;;5014151;28;20197;-86
2022/07/14 05:11:20;;;;;;;5.25;4.68;;;22.10;58.20;;;;;;5013987;28;20671;-86
2022/07/14 05:13:46;;;;;;;5.03;4.53;;;22.10;58.90;;;;;;5006703;28;20601;-85
2022/07/14 05:16:12;;;;;;;5.63;4.88;;;22.00;59.50;;;;;;5008949;28;20286;-84
2022/07/14 05:18:37;;;;;;;9.50;4.93;;;22.10;59.50;;;;;;4993274;28;20220;-85
2022/07/14 05:21:03;;;;;;;5.65;5.18;;;22.20;59.40;;;;;;5004087;28;20230;-86
2022/07/14 05:23:29;;;;;;;5.78;5.28;;;22.20;59.70;;;;;;5000817;28;20183;-86
2022/07/14 05:25:55;;;;;;;6.15;5.07;;;22.20;60.20;;;;;;5013418;28;20589;-87
2022/07/14 05:28:23;;;;;;;6.07;4.90;;;22.20;60.70;;;;;;5001645;28;20263;-88
2022/07/14 05:30:53;;;;;;;6.05;5.35;;;22.30;61.30;;;;;;5037514;28;20197;-85
2022/07/14 05:33:19;;;;;;;5.07;4.78;;;22.30;61.70;;;;;;5033392;28;20215;-87
2022/07/14 05:35:45;;;;;;;5.90;5.40;;;22.30;61.80;;;;;;5016517;28;20297;-86
2022/07/14 05:38:10;;;;;;;6.18;5.63;;;22.20;61.70;;;;;;4996358;28;20190;-86
2022/07/14 05:40:36;;;;;;;6.05;5.50;;;22.20;61.70;;;;;;5011417;28;20182;-86
2022/07/14 05:43:02;;;;;;;6.00;5.65;;;22.20;61.90;;;;;;5000225;28;20186;-86
2022/07/14 05:45:28;;;;;;;5.93;5.50;;;22.00;62.40;;;;;;5004683;28;20223;-86
2022/07/14 05:47:53;;;;;;;6.63;6.07;;;21.90;62.40;;;;;;5003155;28;20257;-86
2022/07/14 05:50:19;;;;;;;6.85;6.45;;;21.70;64.50;;;;;;5025880;28;20190;-85
2022/07/14 05:52:45;;;;;;;7.65;7.15;;;21.80;64.60;;;;;;5015650;28;20197;-86
2022/07/14 05:55:10;;;;;;;7.22;6.63;;;21.90;64.60;;;;;;4998525;28;20209;-86
2022/07/14 05:57:36;;;;;;;7.30;6.68;;;22.00;63.90;;;;;;4991019;28;20273;-85
2022/07/14 06:00:03;;;;;;;7.55;6.85;;;22.00;63.40;;;;;;5003437;28;20181;-86
2022/07/14 06:02:29;;;;;;;9.45;8.38;;;22.10;64.20;;;;;;5004653;28;20202;-86
2022/07/14 06:04:54;;;;;;;8.55;7.45;;;22.10;63.10;;;;;;5014701;28;20225;-85
2022/07/14 06:07:20;;;;;;;7.07;6.75;;;22.10;63.10;;;;;;5019592;28;20197;-87
2022/07/14 06:09:47;;;;;;;7.63;7.03;;;22.10;63.80;;;;;;5035935;28;20204;-86
2022/07/14 06:12:12;;;;;;;7.45;6.85;;;22.10;63.00;;;;;;5020734;28;20185;-86
2022/07/14 06:14:40;;;;;;;7.32;6.80;;;22.00;62.50;;;;;;5013823;28;20241;-87
2022/07/14 06:17:06;;;;;;;6.78;6.28;;;22.00;62.00;;;;;;5006486;28;20193;-86
2022/07/14 06:19:32;;;;;;;6.43;6.03;;;22.10;61.00;;;;;;5010752;28;20205;-86
2022/07/14 06:21:57;;;;;;;6.13;5.53;;;22.40;58.90;;;;;;5020148;28;20189;-84
2022/07/14 06:24:24;;;;;;;5.80;5.40;;;22.60;57.20;;;;;;5020797;28;20185;-84
2022/07/14 06:26:49;;;;;;;6.55;5.78;;;22.70;56.60;;;;;;5006380;28;20190;-85
2022/07/14 06:29:15;;;;;;;5.90;5.50;;;22.70;57.10;;;;;;4985843;28;20204;-89
2022/07/14 06:31:41;;;;;;;5.70;5.30;;;22.70;57.90;;;;;;5012157;28;20261;-84
2022/07/14 06:34:06;;;;;;;17.83;6.97;;;22.90;58.00;;;;;;5010409;28;20224;-86
2022/07/14 06:36:32;;;;;;;6.18;5.78;;;23.00;60.50;;;;;;5010414;28;20205;-86
2022/07/14 06:38:59;;;;;;;13.30;7.30;;;23.00;59.80;;;;;;5005605;28;20182;-87
2022/07/14 06:41:25;;;;;;;11.50;7.60;;;23.10;59.20;;;;;;5005772;28;20231;-86
2022/07/14 06:43:50;;;;;;;10.75;6.63;;;23.20;58.40;;;;;;4993009;28;20186;-86
2022/07/14 06:46:17;;;;;;;10.75;7.43;;;23.20;59.00;;;;;;5002944;28;20206;-85
2022/07/14 06:48:43;;;;;;;7.50;7.00;;;23.20;58.60;;;;;;5008381;28;20208;-86
2022/07/14 06:51:09;;;;;;;6.68;6.07;;;23.10;57.50;;;;;;5005996;28;20722;-87
2022/07/14 06:53:35;;;;;;;9.07;6.50;;;23.20;58.40;;;;;;5002786;28;20190;-85
2022/07/14 06:56:01;;;;;;;9.07;6.75;;;23.20;58.30;;;;;;5002418;28;20457;-87
2022/07/14 06:58:27;;;;;;;7.22;6.63;;;23.30;58.10;;;;;;5012996;28;20730;-87
2022/07/14 07:00:53;;;;;;;7.70;7.00;;;23.30;59.10;;;;;;5004488;28;20183;-86
2022/07/14 07:03:18;;;;;;;7.75;7.03;;;23.20;59.40;;;;;;5005544;28;20197;-86
2022/07/14 07:08:28;;;;;;;7.70;7.13;;;23.20;58.90;;;;;;4998380;28;20682;-86
2022/07/14 07:10:58;;;;;;;8.43;7.75;;;23.20;59.80;;;;;;5011656;28;20272;-85
2022/07/14 07:13:26;;;;;;;8.00;7.43;;;23.10;61.00;;;;;;5011295;28;20275;-86
2022/07/14 07:15:52;;;;;;;8.63;7.82;;;23.30;60.90;;;;;;5007289;28;20218;-85
2022/07/14 07:18:18;;;;;;;8.90;8.20;;;23.40;61.20;;;;;;5011785;28;20288;-86
2022/07/14 07:20:44;;;;;;;8.32;7.63;;;23.40;61.50;;;;;;4991980;28;20189;-86
2022/07/14 07:23:09;;;;;;;8.82;8.00;;;23.60;60.40;;;;;;4986970;28;20273;-84
2022/07/14 07:25:35;;;;;;;9.70;8.50;;;23.90;61.80;;;;;;4991327;28;20311;-84
2022/07/14 07:28:01;;;;;;;9.38;8.77;;;23.90;60.90;;;;;;4991901;28;20194;-84
2022/07/14 07:30:27;;;;;;;8.57;7.88;;;24.00;60.20;;;;;;5011005;28;20277;-83
2022/07/14 07:32:53;;;;;;;9.10;8.40;;;24.20;56.50;;;;;;5004556;28;20222;-84
2022/07/14 07:35:19;;;;;;;8.63;7.90;;;24.30;56.60;;;;;;4987474;28;20241;-83
2022/07/14 07:37:46;;;;;;;8.50;7.72;;;24.50;55.80;;;;;;4983126;28;20190;-83
2022/07/14 07:40:12;;;;;;;8.15;7.47;;;24.70;55.90;;;;;;5010877;28;20193;-84
2022/07/14 07:42:41;;;;;;;7.15;6.65;;;24.70;55.50;;;;;;5013664;28;20209;-84
2022/07/14 07:45:07;;;;;;;7.03;6.53;;;25.00;53.30;;;;;;5014889;28;20237;-83
2022/07/14 07:47:33;;;;;;;7.38;6.40;;;25.10;53.60;;;;;;5009121;28;20221;-84
2022/07/14 07:49:59;;;;;;;7.88;6.93;;;25.30;52.60;;;;;;5009358;28;20190;-83
2022/07/14 07:52:25;;;;;;;7.07;6.57;;;25.40;53.40;;;;;;4995537;28;20206;-84
2022/07/14 07:54:51;;;;;;;7.18;6.28;;;25.60;52.70;;;;;;5003543;28;20222;-84
2022/07/14 07:57:17;;;;;;;6.88;6.20;;;25.60;51.30;;;;;;5010731;28;20197;-84
2022/07/14 07:59:49;;;;;;;6.00;5.53;;;25.80;49.40;;;;;;5009694;28;20193;-85
2022/07/14 08:02:17;;;;;;;7.65;5.88;;;25.90;49.00;;;;;;5009654;28;20197;-85
2022/07/14 08:04:43;;;;;;;11.90;6.13;;;26.00;48.60;;;;;;4996262;28;20198;-87
2022/07/14 08:07:09;;;;;;;7.35;5.57;;;26.10;49.30;;;;;;5006329;28;20196;-84
2022/07/14 08:09:35;;;;;;;6.30;5.80;;;26.20;48.20;;;;;;5010602;28;20189;-84
2022/07/14 08:12:00;;;;;;;6.40;5.75;;;26.50;47.90;;;;;;5003636;28;20279;-85
2022/07/14 08:17:10;;;;;;;6.50;5.78;;;26.70;47.20;;;;;;5015606;28;20185;-84
2022/07/14 08:19:36;;;;;;;6.40;5.95;;;26.70;46.50;;;;;;5024494;28;20242;-84
2022/07/14 08:22:02;;;;;;;6.57;6.03;;;26.80;47.10;;;;;;5002406;28;20200;-84
2022/07/14 08:24:29;;;;;;;7.47;6.45;;;27.00;45.90;;;;;;4994131;28;20190;-84
2022/07/14 08:26:55;;;;;;;7.25;6.57;;;27.10;46.60;;;;;;5011717;28;20284;-84
2022/07/14 08:29:21;;;;;;;6.85;6.53;;;27.40;45.50;;;;;;5011315;28;20691;-84
2022/07/14 08:31:47;;;;;;;7.72;7.13;;;27.40;44.30;;;;;;5012040;28;20190;-85
2022/07/14 08:34:13;;;;;;;6.93;6.45;;;27.60;44.30;;;;;;4989398;28;20186;-85
2022/07/14 08:36:39;;;;;;;7.22;6.70;;;27.70;43.50;;;;;;5012965;28;20700;-86
2022/07/14 08:39:05;;;;;;;6.72;6.22;;;27.80;41.50;;;;;;5012141;28;20201;-84
2022/07/14 08:41:33;;;;;;;8.70;7.28;;;28.00;42.60;;;;;;5010858;28;20209;-85
2022/07/14 08:44:00;;;;;;;7.53;6.88;;;28.10;42.30;;;;;;4992561;28;20190;-84
2022/07/14 08:46:26;;;;;;;6.90;6.38;;;28.30;39.40;;;;;;5011509;28;20206;-84
2022/07/14 08:48:53;;;;;;;7.03;6.38;;;28.50;39.10;;;;;;5008871;28;20187;-84
2022/07/14 08:51:24;;;;;;;7.13;6.35;;;28.40;41.00;;;;;;5004923;28;20651;-84
2022/07/14 08:53:50;;;;;;;6.43;6.03;;;28.70;38.70;;;;;;5016010;28;20192;-84
2022/07/14 08:56:15;;;;;;;5.97;5.57;;;28.80;37.00;;;;;;5009290;28;20333;-84
2022/07/14 08:58:44;;;;;;;5.40;5.10;;;28.80;36.60;;;;;;5011157;28;20668;-84
2022/07/14 09:01:10;;;;;;;9.05;6.00;;;28.90;37.00;;;;;;4990612;28;20182;-86
2022/07/14 09:03:36;;;;;;;6.88;6.28;;;29.00;37.00;;;;;;5007203;28;20248;-85
2022/07/14 09:06:04;;;;;;;9.45;6.20;;;29.20;37.10;;;;;;5003115;28;20216;-85
2022/07/14 09:08:30;;;;;;;5.78;5.38;;;29.20;36.10;;;;;;5005224;28;20193;-86
2022/07/14 09:10:55;;;;;;;5.90;5.57;;;29.30;37.30;;;;;;5007238;28;20666;-85
2022/07/14 09:13:22;;;;;;;6.88;6.18;;;29.60;37.40;;;;;;4988511;28;20233;-87
2022/07/14 09:16:18;;;;;;;6.72;6.10;;;30.00;38.20;;;;;;5009673;28;20225;-85
2022/07/14 09:19:07;;;;;;;6.63;6.22;;;30.30;36.60;;;;;;5003922;28;20179;-85
2022/07/14 09:21:34;;;;;;;6.65;6.10;;;30.50;38.80;;;;;;4991932;28;20198;-86
2022/07/14 09:24:00;;;;;;;6.35;5.88;;;30.50;38.10;;;;;;5011246;28;20259;-86
2022/07/14 09:26:26;;;;;;;6.53;6.07;;;30.70;37.80;;;;;;5012366;28;20216;-86
2022/07/14 09:28:52;;;;;;;6.03;5.63;;;30.80;36.80;;;;;;5008532;28;20360;-84
2022/07/14 09:31:22;;;;;;;6.03;5.63;;;30.90;35.50;;;;;;5008623;28;20356;-83
2022/07/14 09:33:52;;;;;;;6.50;6.03;;;31.10;35.20;;;;;;5011379;28;20196;-85
2022/07/14 09:36:32;;;;;;;6.18;5.82;;;31.20;34.60;;;;;;5010677;28;20210;-85
2022/07/14 09:39:04;;;;;;;6.90;5.93;;;31.30;34.60;;;;;;5008462;28;20185;-87
2022/07/14 09:41:48;;;;;;;6.38;5.72;;;31.30;32.60;;;;;;5016010;28;20273;-84
2022/07/14 09:44:18;;;;;;;6.10;5.80;;;31.40;34.40;;;;;;5014166;28;20199;-85
2022/07/14 09:46:59;;;;;;;6.30;5.90;;;31.30;33.30;;;;;;4984821;28;20264;-84
2022/07/14 09:49:30;;;;;;;9.02;6.55;;;31.30;33.70;;;;;;4992413;28;20186;-84
2022/07/14 09:52:07;;;;;;;6.78;6.32;;;31.40;33.90;;;;;;5009632;28;20225;-85
2022/07/14 09:54:41;;;;;;;6.53;6.13;;;31.60;33.00;;;;;;5010903;28;20324;-86
2022/07/14 09:57:08;;;;;;;9.13;6.80;;;31.60;32.60;;;;;;5004120;28;20213;-85
2022/07/14 10:00:11;;;;;;;6.43;5.82;;;31.70;31.20;;;;;;5018324;28;20221;-84
2022/07/14 10:02:40;;;;;;;7.38;6.35;;;31.80;30.70;;;;;;5018956;28;20191;-85
2022/07/14 10:05:08;;;;;;;6.38;5.63;;;31.80;31.00;;;;;;4997071;28;20617;-85
2022/07/14 10:07:36;;;;;;;7.00;6.40;;;31.90;29.40;;;;;;5012030;28;20595;-85
2022/07/14 10:10:09;;;;;;;6.43;6.03;;;32.00;29.10;;;;;;5009513;28;20184;-84
2022/07/14 10:12:36;;;;;;;8.95;6.25;;;32.00;29.50;;;;;;4989119;28;20194;-86
2022/07/14 10:15:07;;;;;;;6.82;6.30;;;32.20;29.40;;;;;;5003003;28;20220;-85
2022/07/14 10:17:37;;;;;;;6.82;6.30;;;32.20;29.00;;;;;;4998892;28;20198;-85
2022/07/14 10:20:11;;;;;;;6.60;6.20;;;32.20;29.20;;;;;;5009695;28;20194;-85
2022/07/14 10:22:41;;;;;;;5.90;5.60;;;32.20;28.70;;;;;;5003655;28;20192;-85
2022/07/14 10:25:09;;;;;;;6.78;6.18;;;32.40;28.90;;;;;;4995177;28;20296;-85
2022/07/14 10:27:39;;;;;;;9.45;7.30;;;32.50;29.50;;;;;;5010518;28;20189;-85
2022/07/14 10:30:05;;;;;;;6.95;6.55;;;32.70;29.10;;;;;;5002688;28;20196;-85
2022/07/14 10:33:12;;;;;;;6.65;6.18;;;32.50;28.90;;;;;;5007582;28;20269;-84
2022/07/14 10:35:52;;;;;;;7.07;6.70;;;32.20;30.00;;;;;;4988097;28;20233;-86
2022/07/14 10:38:55;;;;;;;7.13;6.70;;;32.00;29.90;;;;;;5008841;28;20184;-86
2022/07/14 10:41:21;;;;;;;6.95;6.32;;;32.20;29.50;;;;;;5010695;28;20193;-85
2022/07/14 10:44:20;;;;;;;7.10;6.60;;;32.50;29.90;;;;;;5018044;28;20189;-84
2022/07/14 10:46:49;;;;;;;7.15;6.65;;;32.80;28.90;;;;;;5007679;28;20201;-85
2022/07/14 10:49:16;;;;;;;7.55;6.95;;;33.10;29.30;;;;;;5013158;28;20196;-84
2022/07/14 10:51:50;;;;;;;7.97;7.50;;;33.30;30.00;;;;;;5002019;28;20229;-86
2022/07/14 10:54:28;;;;;;;7.30;6.80;;;33.40;28.30;;;;;;5020035;28;20177;-85
2022/07/14 10:57:14;;;;;;;6.82;6.50;;;33.60;28.00;;;;;;5000089;28;20218;-85
2022/07/14 10:59:45;;;;;;;7.85;7.35;;;33.80;27.60;;;;;;4986004;28;20288;-85
2022/07/14 11:02:13;;;;;;;8.55;7.93;;;34.30;28.00;;;;;;4988920;28;20290;-85
2022/07/14 11:05:00;;;;;;;8.60;7.97;;;34.10;28.00;;;;;;5015173;28;20683;-86
2022/07/14 11:07:50;;;;;;;20.48;19.27;;;34.30;28.10;;;;;;5025812;28;20190;-85
2022/07/14 11:10:18;;;;;;;8.57;7.88;;;34.30;28.70;;;;;;5019943;28;20174;-85
2022/07/14 11:12:59;;;;;;;8.52;8.02;;;34.60;27.70;;;;;;5017604;28;20194;-86
2022/07/14 11:15:45;;;;;;;10.43;8.10;;;34.60;28.10;;;;;;5019605;28;20223;-87
2022/07/14 11:18:24;;;;;;;7.55;7.18;;;34.60;28.20;;;;;;5027570;28;20234;-84
2022/07/14 11:20:50;;;;;;;8.38;7.68;;;34.70;26.90;;;;;;5011006;28;20174;-85
2022/07/14 11:23:25;;;;;;;8.13;7.53;;;34.80;27.20;;;;;;5011198;28;20207;-86
2022/07/14 11:25:53;;;;;;;8.38;7.93;;;34.80;26.90;;;;;;5012837;28;20209;-85
2022/07/14 11:28:37;;;;;;;8.13;7.53;;;34.90;27.90;;;;;;5016318;28;20247;-85
2022/07/14 11:31:11;;;;;;;8.93;8.15;;;34.70;27.50;;;;;;5018567;28;20248;-84
2022/07/14 11:36:17;;;;;;;9.52;8.52;;;34.60;28.30;;;;;;5012646;28;20743;-85
2022/07/14 11:36:27;;;;;;;8.40;7.70;;;34.70;27.70;;;;;;5005845;28;20249;-85
2022/07/14 11:39:21;;;;;;;7.85;7.07;;;34.60;27.90;;;;;;5005997;28;20205;-85
2022/07/14 11:41:49;;;;;;;8.93;8.38;;;34.80;27.70;;;;;;5017549;28;20174;-85
2022/07/14 11:44:36;;;;;;;8.80;8.38;;;35.40;27.70;;;;;;4997669;28;20212;-85
2022/07/14 11:47:04;;;;;;;9.10;8.50;;;35.80;26.90;;;;;;5006753;28;20213;-86
2022/07/14 11:49:34;;;;;;;8.07;7.68;;;35.70;26.90;;;;;;5007933;28;20182;-86
2022/07/14 11:52:01;;;;;;;8.40;7.97;;;34.90;27.90;;;;;;5005289;28;20202;-85
2022/07/14 11:54:27;;;;;;;8.20;7.50;;;34.50;27.90;;;;;;5001756;28;20193;-85
2022/07/14 11:57:08;;;;;;;7.70;7.20;;;34.10;27.90;;;;;;5005041;28;20218;-85
2022/07/14 11:59:35;;;;;;;7.65;6.95;;;34.00;28.50;;;;;;4992562;28;20223;-85
2022/07/14 12:02:14;;;;;;;8.38;6.78;;;33.90;28.40;;;;;;5011869;28;20251;-86
2022/07/14 12:04:52;;;;;;;11.25;7.20;;;34.00;28.20;;;;;;4995322;28;20189;-85
2022/07/14 12:07:19;;;;;;;7.50;7.10;;;34.00;28.00;;;;;;5000686;28;20261;-85
2022/07/14 12:09:46;;;;;;;8.20;7.75;;;34.20;28.30;;;;;;5009865;28;20194;-85
2022/07/14 12:12:12;;;;;;;7.90;7.25;;;34.20;27.80;;;;;;5008503;28;20202;-86
2022/07/14 12:14:47;;;;;;;7.40;6.90;;;34.00;28.00;;;;;;5002885;28;20220;-85
2022/07/14 12:17:13;;;;;;;7.72;7.22;;;34.20;27.50;;;;;;5011079;28;20192;-85
2022/07/14 12:19:39;;;;;;;8.00;7.47;;;34.90;27.40;;;;;;4984847;28;20268;-85
2022/07/14 12:22:05;;;;;;;8.55;8.00;;;35.50;27.00;;;;;;4999056;28;20179;-85
2022/07/14 12:24:32;;;;;;;8.40;8.00;;;35.60;26.90;;;;;;5006866;28;20200;-87
2022/07/14 12:27:08;;;;;;;8.32;7.82;;;35.90;25.70;;;;;;5013931;28;20198;-85
2022/07/14 12:29:35;;;;;;;8.80;8.23;;;36.50;25.40;;;;;;5016372;28;20265;-85
2022/07/14 12:32:03;;;;;;;8.30;7.90;;;36.70;25.90;;;;;;5010387;28;20549;-85
2022/07/14 12:34:30;;;;;;;8.70;8.30;;;36.50;26.20;;;;;;5010778;28;20185;-86
2022/07/14 12:36:59;;;;;;;9.32;8.75;;;37.00;26.40;;;;;;5022644;28;20191;-87
2022/07/14 12:39:24;;;;;;;8.32;7.93;;;37.10;26.20;;;;;;5018129;28;20190;-85
2022/07/14 12:41:51;;;;;;;7.60;7.20;;;37.10;25.50;;;;;;5005586;28;20285;-88
2022/07/14 12:44:17;;;;;;;8.13;7.60;;;37.10;26.00;;;;;;5010067;28;20186;-85
2022/07/14 12:46:43;;;;;;;8.30;7.70;;;36.90;25.20;;;;;;5009433;28;20228;-85
2022/07/14 12:49:09;;;;;;;12.43;8.18;;;36.90;25.30;;;;;;5010145;28;20216;-86
2022/07/14 12:51:43;;;;;;;8.38;7.68;;;37.00;25.40;;;;;;5006540;28;20252;-85
2022/07/14 12:54:16;;;;;;;8.57;7.95;;;37.20;25.20;;;;;;5001116;28;20184;-85
2022/07/14 12:56:53;;;;;;;8.35;7.60;;;37.10;24.50;;;;;;5012965;28;20205;-86
2022/07/14 12:59:21;;;;;;;8.68;7.30;;;36.80;24.70;;;;;;5010893;28;20213;-85
2022/07/14 13:01:52;;;;;;;8.27;7.45;;;36.80;24.50;;;;;;5000790;28;20213;-85
2022/07/14 13:04:46;;;;;;;7.55;7.15;;;37.30;24.80;;;;;;5011546;28;20184;-86